createdAt,value
2023-04-22T00:01:52.122Z,4.60
2023-04-22T00:04:21.543Z,6.40
2023-04-22T00:06:48.544Z,5.40
2023-04-22T00:09:15.470Z,5.70
2023-04-22T00:11:42.364Z,5.30
2023-04-22T00:14:12.222Z,4.90
2023-04-22T00:16:42.033Z,6.07
2023-04-22T00:19:11.903Z,5.63
2023-04-22T00:21:38.779Z,5.40
2023-04-22T00:24:06.023Z,5.50
2023-04-22T00:26:35.551Z,5.37
2023-04-22T00:29:05.530Z,5.63
2023-04-22T00:31:34.950Z,5.57
2023-04-22T00:34:04.098Z,5.50
2023-04-22T00:36:31.659Z,6.10
2023-04-22T00:38:58.535Z,5.50
2023-04-22T00:41:26.190Z,6.27
2023-04-22T00:43:53.693Z,6.17
2023-04-22T00:46:21.644Z,6.27
2023-04-22T00:48:54.077Z,5.83
2023-04-22T00:51:23.447Z,5.73
2023-04-22T00:53:50.433Z,6.00
2023-04-22T00:56:19.888Z,6.33
2023-04-22T00:58:46.781Z,6.10
2023-04-22T01:01:18.841Z,6.50
2023-04-22T01:03:48.299Z,6.83
2023-04-22T01:06:16.403Z,6.60
2023-04-22T01:08:43.590Z,7.10
2023-04-22T01:11:13.861Z,6.60
2023-04-22T01:13:41.527Z,6.10
2023-04-22T01:16:10.084Z,6.87
2023-04-22T01:18:41.874Z,6.00
2023-04-22T01:21:08.712Z,6.10
2023-04-22T01:23:35.883Z,5.50
2023-04-22T01:26:05.325Z,6.13
2023-04-22T01:28:32.712Z,7.17
2023-04-22T01:31:04.654Z,5.73
2023-04-22T01:33:31.615Z,5.97
2023-04-22T01:35:58.448Z,6.73
2023-04-22T01:38:25.388Z,6.83
2023-04-22T01:40:55.377Z,6.57
2023-04-22T01:43:22.355Z,7.67
2023-04-22T01:45:49.252Z,6.27
2023-04-22T01:48:21.069Z,7.50
2023-04-22T01:50:47.974Z,6.97
2023-04-22T01:53:14.934Z,7.87
2023-04-22T01:55:43.135Z,7.10
2023-04-22T01:58:12.364Z,6.67
2023-04-22T02:00:43.778Z,6.90
2023-04-22T02:03:11.081Z,8.00
2023-04-22T02:05:41.530Z,7.00
2023-04-22T02:08:08.403Z,7.43
2023-04-22T02:10:35.361Z,7.83
2023-04-22T02:13:04.558Z,7.40
2023-04-22T02:15:31.835Z,7.03
2023-04-22T02:18:00.955Z,6.90
2023-04-22T02:20:28.082Z,7.40
2023-04-22T02:22:55.033Z,9.07
2023-04-22T02:25:21.970Z,8.30
2023-04-22T02:27:48.905Z,7.50
2023-04-22T02:30:16.206Z,8.00
2023-04-22T02:32:43.312Z,7.40
2023-04-22T02:35:11.679Z,8.87
2023-04-22T02:37:40.967Z,7.13
2023-04-22T02:40:10.963Z,8.10
2023-04-22T02:42:37.898Z,8.50
2023-04-22T02:45:10.240Z,8.10
2023-04-22T02:47:37.178Z,7.67
2023-04-22T02:50:04.469Z,8.40
2023-04-22T02:52:34.380Z,7.60
2023-04-22T02:55:01.431Z,7.97
2023-04-22T02:57:28.313Z,8.27
2023-04-22T02:59:55.395Z,7.60
2023-04-22T03:02:22.611Z,7.90
2023-04-22T03:04:49.696Z,8.40
2023-04-22T03:07:17.133Z,8.37
2023-04-22T03:09:46.496Z,7.87
2023-04-22T03:12:13.558Z,8.10
2023-04-22T03:14:42.565Z,8.80
2023-04-22T03:17:11.964Z,9.13
2023-04-22T03:19:39.456Z,8.20
2023-04-22T03:22:06.554Z,7.83
2023-04-22T03:24:35.908Z,8.57
2023-04-22T03:27:04.018Z,8.17
2023-04-22T03:29:33.032Z,8.63
2023-04-22T03:32:00.214Z,8.67
2023-04-22T03:34:30.105Z,8.93
2023-04-22T03:36:57.004Z,9.20
2023-04-22T03:39:23.860Z,8.20
2023-04-22T03:41:50.954Z,8.67
2023-04-22T03:44:17.821Z,8.70
2023-04-22T03:46:44.707Z,7.97
2023-04-22T03:49:12.272Z,8.40
2023-04-22T03:51:39.161Z,8.70
2023-04-22T03:54:08.203Z,9.67
2023-04-22T03:56:35.181Z,9.50
2023-04-22T03:59:02.131Z,9.03
2023-04-22T04:01:28.983Z,9.07
2023-04-22T04:03:58.392Z,9.50
2023-04-22T04:06:28.054Z,8.87
2023-04-22T04:08:54.926Z,9.10
2023-04-22T04:11:24.859Z,8.67
2023-04-22T04:13:54.029Z,10.00
2023-04-22T04:16:25.558Z,9.27
2023-04-22T04:18:52.723Z,8.80
2023-04-22T04:21:19.620Z,10.10
2023-04-22T04:23:47.501Z,9.57
2023-04-22T04:26:15.192Z,9.73
2023-04-22T04:28:42.203Z,9.03
2023-04-22T04:31:09.233Z,8.60
2023-04-22T04:33:36.971Z,9.37
2023-04-22T04:36:08.754Z,8.60
2023-04-22T04:38:39.003Z,8.87
2023-04-22T04:41:05.854Z,9.50
2023-04-22T04:43:32.693Z,8.57
2023-04-22T04:46:01.898Z,9.50
2023-04-22T04:48:28.987Z,9.60
2023-04-22T04:50:56.607Z,10.37
2023-04-22T04:53:28.170Z,10.60
2023-04-22T04:55:55.185Z,9.70
2023-04-22T04:58:24.542Z,9.50
2023-04-22T05:00:51.644Z,9.77
2023-04-22T05:03:18.674Z,9.40
2023-04-22T05:05:48.292Z,9.50
2023-04-22T05:08:15.309Z,9.53
2023-04-22T05:10:42.497Z,9.57
2023-04-22T05:13:09.384Z,9.53
2023-04-22T05:15:38.948Z,9.87
2023-04-22T05:18:09.100Z,9.53
2023-04-22T05:20:38.133Z,10.00
2023-04-22T05:23:09.636Z,9.90
2023-04-22T05:25:39.308Z,10.80
2023-04-22T05:28:06.161Z,10.00
2023-04-22T05:30:33.287Z,10.30
2023-04-22T05:33:00.406Z,9.80
2023-04-22T05:35:30.108Z,9.30
2023-04-22T05:37:56.946Z,9.70
2023-04-22T05:40:28.365Z,10.60
2023-04-22T05:42:57.830Z,9.30
2023-04-22T05:45:24.685Z,9.50
2023-04-22T05:47:51.683Z,10.07
2023-04-22T05:50:24.018Z,10.27
2023-04-22T05:52:50.923Z,10.57
2023-04-22T05:55:20.310Z,10.57
2023-04-22T05:57:51.474Z,10.70
2023-04-22T06:00:18.788Z,10.40
2023-04-22T06:02:48.104Z,10.20
2023-04-22T06:05:15.358Z,11.87
2023-04-22T06:07:42.332Z,11.00
2023-04-22T06:10:14.255Z,10.43
2023-04-22T06:12:41.202Z,11.40
2023-04-22T06:15:08.723Z,11.57
2023-04-22T06:17:35.858Z,10.70
2023-04-22T06:20:03.120Z,10.50
2023-04-22T06:22:30.001Z,11.00
2023-04-22T06:24:56.848Z,10.90
2023-04-22T06:27:23.721Z,10.37
2023-04-22T06:29:50.865Z,11.40
2023-04-22T06:32:17.761Z,10.63
2023-04-22T06:34:46.936Z,11.63
2023-04-22T06:37:13.854Z,10.00
2023-04-22T06:39:40.973Z,9.60
2023-04-22T06:42:08.226Z,11.03
2023-04-22T06:44:37.503Z,10.57
2023-04-22T06:47:07.227Z,9.90
2023-04-22T06:49:41.527Z,10.53
2023-04-22T06:52:08.804Z,9.70
2023-04-22T06:54:38.508Z,9.93
2023-04-22T06:57:10.679Z,9.73
2023-04-22T06:59:40.416Z,10.70
2023-04-22T07:02:07.943Z,11.13
2023-04-22T07:04:35.058Z,9.80
2023-04-22T07:07:02.345Z,9.57
2023-04-22T07:09:29.204Z,10.47
2023-04-22T07:11:58.026Z,10.93
2023-04-22T07:14:27.460Z,10.30
2023-04-22T07:16:54.581Z,10.00
2023-04-22T07:19:22.028Z,9.40
2023-04-22T07:21:59.328Z,10.20
2023-04-22T07:24:29.340Z,8.73
2023-04-22T07:26:59.617Z,8.43
2023-04-22T07:29:26.797Z,9.97
2023-04-22T07:31:53.855Z,9.03
2023-04-22T07:34:21.907Z,9.43
2023-04-22T07:36:52.738Z,8.33
2023-04-22T07:39:22.939Z,9.70
2023-04-22T07:41:50.835Z,10.07
2023-04-22T07:44:21.523Z,9.30
2023-04-22T07:46:50.911Z,9.47
2023-04-22T07:49:18.667Z,8.73
2023-04-22T07:51:46.725Z,8.90
2023-04-22T07:54:13.796Z,8.87
2023-04-22T07:56:43.133Z,9.30
2023-04-22T07:59:10.000Z,7.83
2023-04-22T08:01:36.925Z,10.07
2023-04-22T08:04:04.118Z,8.83
2023-04-22T08:06:33.645Z,8.30
2023-04-22T08:09:01.099Z,9.13
2023-04-22T08:11:28.071Z,9.10
2023-04-22T08:13:55.219Z,9.00
2023-04-22T08:16:22.234Z,8.97
2023-04-22T08:18:52.263Z,9.00
2023-04-22T08:21:19.167Z,8.93
2023-04-22T08:23:46.363Z,8.47
2023-04-22T08:26:15.297Z,9.87
2023-04-22T08:28:42.654Z,9.17
2023-04-22T08:31:12.098Z,8.40
2023-04-22T08:33:41.648Z,8.80
2023-04-22T08:36:11.019Z,8.30
2023-04-22T08:38:38.099Z,8.30
2023-04-22T08:41:07.205Z,9.20
2023-04-22T08:43:34.717Z,8.47
2023-04-22T08:46:02.259Z,8.10
2023-04-22T08:48:31.689Z,9.67
2023-04-22T08:51:01.121Z,8.77
2023-04-22T08:53:31.562Z,8.47
2023-04-22T08:56:01.189Z,9.77
2023-04-22T08:58:29.040Z,8.60
2023-04-22T09:01:01.509Z,8.37
2023-04-22T09:03:28.637Z,8.63
2023-04-22T09:05:58.357Z,8.77
2023-04-22T09:08:28.114Z,8.80
2023-04-22T09:10:55.194Z,7.97
2023-04-22T09:13:24.282Z,8.63
2023-04-22T09:15:51.164Z,7.50
2023-04-22T09:18:19.690Z,8.00
2023-04-22T09:20:51.954Z,7.60
2023-04-22T09:23:24.086Z,8.10
2023-04-22T09:25:51.331Z,7.23
2023-04-22T09:28:21.407Z,7.83
2023-04-22T09:30:48.398Z,7.57
2023-04-22T09:33:17.801Z,7.90
2023-04-22T09:35:45.074Z,6.97
2023-04-22T09:38:13.077Z,6.47
2023-04-22T09:40:44.052Z,7.33
2023-04-22T09:43:17.560Z,7.03
2023-04-22T09:45:45.379Z,7.80
2023-04-22T09:48:19.302Z,7.47
2023-04-22T09:50:51.970Z,6.67
2023-04-22T09:53:21.568Z,7.10
2023-04-22T09:55:54.330Z,7.10
2023-04-22T09:58:27.653Z,6.60
2023-04-22T10:00:59.166Z,6.53
2023-04-22T10:03:28.680Z,5.87
2023-04-22T10:05:55.842Z,7.00
2023-04-22T10:08:22.923Z,6.80
2023-04-22T10:10:49.952Z,5.63
2023-04-22T10:13:16.917Z,6.03
2023-04-22T10:15:51.010Z,5.60
2023-04-22T10:18:24.961Z,5.63
2023-04-22T10:20:56.378Z,5.83
2023-04-22T10:23:26.303Z,7.10
2023-04-22T10:25:57.029Z,6.50
2023-04-22T10:28:30.781Z,6.77
2023-04-22T10:31:06.481Z,6.03
2023-04-22T10:33:35.210Z,5.90
2023-04-22T10:36:20.929Z,5.70
2023-04-22T10:38:50.804Z,5.90
2023-04-22T10:41:30.889Z,6.17
2023-04-22T10:44:07.128Z,5.47
2023-04-22T10:46:34.936Z,6.00
2023-04-22T10:49:20.570Z,5.40
2023-04-22T10:51:58.636Z,5.53
2023-04-22T10:54:37.541Z,4.97
2023-04-22T10:57:06.810Z,5.93
2023-04-22T10:59:42.877Z,5.70
2023-04-22T11:02:12.133Z,6.40
2023-04-22T11:04:39.640Z,5.37
2023-04-22T11:07:20.717Z,5.47
2023-04-22T11:10:09.572Z,5.93
2023-04-22T11:12:39.201Z,6.77
2023-04-22T11:15:15.007Z,5.20
2023-04-22T11:17:50.651Z,6.20
2023-04-22T11:20:18.686Z,5.73
2023-04-22T11:22:54.396Z,5.70
2023-04-22T11:25:23.013Z,4.63
2023-04-22T11:27:50.546Z,5.00
2023-04-22T11:30:23.291Z,5.30
2023-04-22T11:32:59.908Z,4.70
2023-04-22T11:35:33.730Z,4.33
2023-04-22T11:38:05.464Z,3.90
2023-04-22T11:40:40.754Z,4.80
2023-04-22T11:43:10.829Z,5.00
2023-04-22T11:45:39.387Z,3.73
2023-04-22T11:48:09.737Z,4.67
2023-04-22T11:50:39.736Z,4.10
2023-04-22T11:53:17.992Z,4.70
2023-04-22T11:55:47.356Z,3.70
2023-04-22T11:58:18.996Z,4.83
2023-04-22T12:00:48.427Z,4.60
2023-04-22T12:03:18.376Z,4.47
2023-04-22T12:05:53.745Z,4.80
2023-04-22T12:08:41.968Z,4.00
2023-04-22T12:11:15.655Z,4.57
2023-04-22T12:13:46.385Z,3.93
2023-04-22T12:16:21.143Z,4.60
2023-04-22T12:18:48.963Z,4.27
2023-04-22T12:21:23.699Z,4.83
2023-04-22T12:24:10.529Z,3.40
2023-04-22T12:26:40.510Z,3.50
2023-04-22T12:29:07.865Z,4.10
2023-04-22T12:31:34.850Z,4.33
2023-04-22T12:34:04.224Z,4.43
2023-04-22T12:36:32.452Z,4.00
2023-04-22T12:38:59.429Z,4.40
2023-04-22T12:41:28.625Z,4.10
2023-04-22T12:43:55.756Z,4.67
2023-04-22T12:46:26.042Z,4.47
2023-04-22T12:48:53.164Z,4.17
2023-04-22T12:51:20.032Z,4.50
2023-04-22T12:53:49.911Z,4.83
2023-04-22T12:56:16.881Z,3.97
2023-04-22T12:58:44.019Z,3.93
2023-04-22T13:01:10.874Z,3.83
2023-04-22T13:03:37.981Z,4.00
2023-04-22T13:06:07.129Z,4.00
2023-04-22T13:08:36.574Z,3.40
2023-04-22T13:11:03.732Z,4.13
2023-04-22T13:13:30.791Z,4.20
2023-04-22T13:15:57.762Z,3.87
2023-04-22T13:18:27.177Z,3.27
2023-04-22T13:20:57.770Z,4.00
2023-04-22T13:23:25.977Z,4.40
2023-04-22T13:25:58.628Z,3.93
2023-04-22T13:28:27.944Z,4.13
2023-04-22T13:30:58.214Z,4.50
2023-04-22T13:33:27.345Z,4.50
2023-04-22T13:35:54.270Z,4.50
2023-04-22T13:38:26.347Z,3.87
2023-04-22T13:40:53.207Z,3.67
2023-04-22T13:43:23.653Z,4.10
2023-04-22T13:45:50.642Z,3.97
2023-04-22T13:48:19.634Z,4.00
2023-04-22T13:50:48.696Z,3.77
2023-04-22T13:53:17.874Z,4.03
2023-04-22T13:55:47.243Z,3.70
2023-04-22T13:58:16.685Z,4.17
2023-04-22T14:00:45.684Z,3.70
2023-04-22T14:03:12.827Z,3.77
2023-04-22T14:05:39.789Z,3.30
2023-04-22T14:08:06.643Z,3.30
2023-04-22T14:10:33.656Z,3.33
2023-04-22T14:13:03.635Z,3.20
2023-04-22T14:15:30.953Z,3.67
2023-04-22T14:17:57.927Z,3.93
2023-04-22T14:20:25.450Z,3.43
2023-04-22T14:22:54.514Z,3.70
2023-04-22T14:25:21.579Z,3.73
2023-04-22T14:27:50.507Z,4.23
2023-04-22T14:30:17.931Z,3.70
2023-04-22T14:32:45.004Z,3.60
2023-04-22T14:35:16.673Z,4.00
2023-04-22T14:37:44.997Z,4.37
2023-04-22T14:40:12.594Z,4.00
2023-04-22T14:42:40.020Z,3.90
2023-04-22T14:45:07.781Z,4.00
2023-04-22T14:47:34.652Z,3.93
2023-04-22T14:50:06.253Z,3.90
2023-04-22T14:52:35.631Z,4.20
2023-04-22T14:55:15.521Z,3.70
2023-04-22T14:57:53.373Z,3.63
2023-04-22T15:00:24.049Z,3.70
2023-04-22T15:02:58.782Z,3.43
2023-04-22T15:05:25.735Z,3.83
2023-04-22T15:07:52.911Z,3.17
2023-04-22T15:10:20.046Z,3.30
2023-04-22T15:12:49.136Z,3.53
2023-04-22T15:15:17.889Z,3.33
2023-04-22T15:17:45.943Z,4.00
2023-04-22T15:20:14.030Z,3.57
2023-04-22T15:22:41.257Z,3.83
2023-04-22T15:25:10.147Z,3.83
2023-04-22T15:27:39.018Z,3.47
2023-04-22T15:30:10.900Z,3.77
2023-04-22T15:32:40.707Z,3.33
2023-04-22T15:35:08.796Z,3.60
2023-04-22T15:37:35.780Z,3.80
2023-04-22T15:40:03.057Z,3.67
2023-04-22T15:42:34.668Z,3.90
2023-04-22T15:45:03.561Z,3.30
2023-04-22T15:47:30.879Z,3.50
2023-04-22T15:50:06.141Z,4.07
2023-04-22T15:52:38.252Z,3.40
2023-04-22T15:55:09.298Z,3.50
2023-04-22T15:57:36.784Z,3.60
2023-04-22T16:00:12.976Z,3.43
2023-04-22T16:02:42.616Z,4.97
2023-04-22T16:05:11.326Z,3.60
2023-04-22T16:07:40.952Z,3.40
2023-04-22T16:10:09.081Z,4.10
2023-04-22T16:12:35.981Z,4.20
2023-04-22T16:15:02.896Z,3.93
2023-04-22T16:17:30.284Z,4.60
2023-04-22T16:19:57.335Z,4.00
2023-04-22T16:22:24.328Z,4.17
2023-04-22T16:24:51.748Z,4.03
2023-04-22T16:27:19.306Z,4.40
2023-04-22T16:29:46.563Z,4.63
2023-04-22T16:32:13.746Z,4.23
2023-04-22T16:34:43.737Z,4.20
2023-04-22T16:37:10.661Z,3.90
2023-04-22T16:39:37.733Z,4.37
2023-04-22T16:42:07.585Z,4.10
2023-04-22T16:44:34.460Z,4.40
2023-04-22T16:47:01.683Z,3.83
2023-04-22T16:49:28.622Z,4.00
2023-04-22T16:52:00.226Z,4.00
2023-04-22T16:54:27.410Z,4.00
2023-04-22T16:56:54.239Z,4.37
2023-04-22T16:59:21.123Z,3.90
2023-04-22T17:01:48.016Z,3.80
2023-04-22T17:04:15.129Z,4.80
2023-04-22T17:06:42.196Z,4.47
2023-04-22T17:09:14.108Z,4.73
2023-04-22T17:11:41.214Z,4.27
2023-04-22T17:14:10.536Z,4.07
2023-04-22T17:16:41.068Z,4.37
2023-04-22T17:19:07.955Z,4.40
2023-04-22T17:21:34.922Z,4.10
2023-04-22T17:24:05.004Z,4.87
2023-04-22T17:26:34.674Z,4.00
2023-04-22T17:29:07.040Z,4.03
2023-04-22T17:31:34.448Z,4.30
2023-04-22T17:34:05.043Z,4.00
2023-04-22T17:36:34.039Z,3.60
2023-04-22T17:39:01.020Z,4.47
2023-04-22T17:41:27.911Z,4.13
2023-04-22T17:43:54.949Z,4.17
2023-04-22T17:46:26.567Z,4.20
2023-04-22T17:48:53.515Z,6.20
2023-04-22T17:51:20.723Z,5.20
2023-04-22T17:53:47.904Z,3.70
2023-04-22T17:56:14.761Z,3.93
2023-04-22T17:58:41.631Z,4.70
2023-04-22T18:01:11.552Z,4.53
2023-04-22T18:03:45.671Z,5.00
2023-04-22T18:06:12.714Z,4.60
2023-04-22T18:08:39.602Z,5.13
2023-04-22T18:11:06.897Z,4.67
2023-04-22T18:13:36.516Z,4.40
2023-04-22T18:16:08.015Z,3.83
2023-04-22T18:18:35.486Z,4.03
2023-04-22T18:21:04.646Z,3.90
2023-04-22T18:23:35.162Z,3.93
2023-04-22T18:26:09.482Z,4.20
2023-04-22T18:28:40.085Z,3.97
2023-04-22T18:31:12.348Z,4.33
2023-04-22T18:33:39.408Z,4.70
2023-04-22T18:36:09.791Z,4.43
2023-04-22T18:38:38.846Z,4.43
2023-04-22T18:41:10.905Z,4.43
2023-04-22T18:43:37.790Z,4.00
2023-04-22T18:46:07.980Z,4.20
2023-04-22T18:48:37.228Z,3.83
2023-04-22T18:51:04.225Z,4.60
2023-04-22T18:53:31.210Z,4.80
2023-04-22T18:55:58.074Z,4.33
2023-04-22T18:58:29.546Z,4.87
2023-04-22T19:00:58.602Z,4.50
2023-04-22T19:03:27.814Z,4.63
2023-04-22T19:05:54.927Z,4.47
2023-04-22T19:08:21.789Z,4.63
2023-04-22T19:10:48.996Z,4.77
2023-04-22T19:13:29.215Z,4.20
2023-04-22T19:15:57.507Z,5.10
2023-04-22T19:18:24.498Z,4.80
2023-04-22T19:20:51.750Z,5.07
2023-04-22T19:23:21.943Z,4.30
2023-04-22T19:25:48.936Z,4.87
2023-04-22T19:28:18.306Z,4.80
2023-04-22T19:30:45.892Z,5.33
2023-04-22T19:33:13.096Z,5.20
2023-04-22T19:35:39.950Z,4.70
2023-04-22T19:38:10.418Z,4.90
2023-04-22T19:40:37.394Z,4.73
2023-04-22T19:43:06.835Z,5.20
2023-04-22T19:45:34.004Z,5.20
2023-04-22T19:48:01.731Z,4.10
2023-04-22T19:50:31.277Z,4.70
2023-04-22T19:53:05.285Z,4.80
2023-04-22T19:55:36.753Z,4.53
2023-04-22T19:58:04.516Z,4.83
2023-04-22T20:00:32.200Z,4.83
2023-04-22T20:02:59.759Z,4.70
2023-04-22T20:05:27.631Z,4.83
2023-04-22T20:08:03.261Z,4.80
2023-04-22T20:10:31.295Z,5.00
2023-04-22T20:12:59.828Z,5.10
2023-04-22T20:15:27.676Z,5.20
2023-04-22T20:17:57.128Z,5.07
2023-04-22T20:20:27.518Z,5.40
2023-04-22T20:22:57.746Z,4.87
2023-04-22T20:25:28.767Z,5.03
2023-04-22T20:27:56.448Z,5.33
2023-04-22T20:30:23.494Z,5.20
2023-04-22T20:32:50.730Z,6.10
2023-04-22T20:35:20.846Z,5.00
2023-04-22T20:37:50.852Z,5.60
2023-04-22T20:40:23.249Z,6.87
2023-04-22T20:42:57.122Z,6.53
2023-04-22T20:45:24.460Z,5.40
2023-04-22T20:47:53.602Z,6.70
2023-04-22T20:50:22.850Z,5.93
2023-04-22T20:52:49.919Z,6.23
2023-04-22T20:55:17.204Z,6.10
2023-04-22T20:57:44.913Z,5.80
2023-04-22T21:00:15.041Z,5.73
2023-04-22T21:02:43.749Z,5.00
2023-04-22T21:05:11.881Z,5.63
2023-04-22T21:07:41.919Z,6.20
2023-04-22T21:10:09.809Z,5.93
2023-04-22T21:12:38.137Z,5.67
2023-04-22T21:15:08.359Z,5.30
2023-04-22T21:17:38.763Z,5.40
2023-04-22T21:20:09.097Z,4.47
2023-04-22T21:22:40.662Z,5.07
2023-04-22T21:25:17.346Z,4.67
2023-04-22T21:27:44.564Z,4.60
2023-04-22T21:30:14.955Z,4.23
2023-04-22T21:32:44.298Z,4.60
2023-04-22T21:35:14.828Z,4.70
2023-04-22T21:37:46.537Z,4.67
2023-04-22T21:40:15.669Z,4.27
2023-04-22T21:42:42.671Z,4.33
2023-04-22T21:45:12.328Z,5.10
2023-04-22T21:47:39.310Z,4.10
2023-04-22T21:50:07.224Z,4.80
2023-04-22T21:52:34.139Z,4.20
2023-04-22T21:55:01.215Z,4.83
2023-04-22T21:57:30.621Z,4.23
2023-04-22T22:00:02.610Z,5.07
2023-04-22T22:02:29.638Z,4.20
2023-04-22T22:04:56.693Z,4.37
2023-04-22T22:07:23.685Z,4.40
2023-04-22T22:09:50.676Z,4.53
2023-04-22T22:12:23.258Z,4.60
2023-04-22T22:14:50.283Z,4.20
2023-04-22T22:17:17.368Z,5.83
2023-04-22T22:19:44.288Z,6.20
2023-04-22T22:22:11.173Z,8.77
2023-04-22T22:24:38.128Z,4.90
2023-04-22T22:27:05.428Z,5.27
2023-04-22T22:29:32.507Z,5.40
2023-04-22T22:31:59.406Z,4.83
2023-04-22T22:34:26.760Z,5.37
2023-04-22T22:36:53.692Z,4.90
2023-04-22T22:39:20.659Z,11.03
2023-04-22T22:41:49.687Z,6.80
2023-04-22T22:44:19.533Z,6.37
2023-04-22T22:46:48.616Z,5.83
2023-04-22T22:49:18.103Z,6.17
2023-04-22T22:51:45.121Z,5.37
2023-04-22T22:54:12.072Z,4.93
2023-04-22T22:56:39.129Z,21.97
2023-04-22T22:59:08.645Z,5.90
2023-04-22T23:01:35.645Z,5.20
2023-04-22T23:04:06.004Z,4.87
2023-04-22T23:06:40.440Z,5.80
2023-04-22T23:09:08.105Z,4.90
2023-04-22T23:11:37.298Z,5.40
2023-04-22T23:14:04.559Z,5.33
2023-04-22T23:16:34.486Z,5.00
2023-04-22T23:19:02.939Z,5.17
2023-04-22T23:21:34.342Z,5.13
2023-04-22T23:24:03.920Z,4.83
2023-04-22T23:26:33.836Z,5.27
2023-04-22T23:29:01.096Z,4.90
2023-04-22T23:31:32.110Z,5.33
2023-04-22T23:34:02.811Z,4.90
2023-04-22T23:36:32.886Z,5.10
2023-04-22T23:39:05.601Z,4.70
2023-04-22T23:41:33.599Z,5.70
2023-04-22T23:44:00.571Z,4.13
2023-04-22T23:46:30.052Z,3.87
2023-04-22T23:48:57.427Z,4.97
2023-04-22T23:51:24.737Z,4.13
2023-04-22T23:53:51.703Z,4.50
2023-04-22T23:56:21.156Z,4.80
2023-04-22T23:58:54.064Z,4.10
